Time;durP1;ratioP1;P1;durP2;ratioP2;P2;SDS_P1;SDS_P2;PMS_P1;PMS_P2;Temp;Humidity;BMP_temperature;BMP_pressure;BME280_temperature;BME280_humidity;BME280_pressure;Samples;Min_cycle;Max_cycle;Signal;HPM_P1;HPM_P2
2021/06/15 00:00:27;;;;;;;4.15;3.65;;;;;;;21.24;52.94;100338.72;10393329;28;20076;-68
2021/06/15 00:05:29;;;;;;;5.85;3.75;;;;;;;21.23;52.91;100342.47;10391632;28;20128;-68
2021/06/15 00:10:30;;;;;;;4.57;4.05;;;;;;;21.09;53.41;100333.38;10392307;28;20677;-68
2021/06/15 00:15:32;;;;;;;4.90;3.67;;;;;;;21.08;53.55;100339.81;10391421;28;20128;-68
2021/06/15 00:20:33;;;;;;;4.15;3.55;;;;;;;20.97;54.04;100330.31;10409262;28;20069;-68
2021/06/15 00:25:37;;;;;;;3.53;3.22;;;;;;;20.99;54.10;100343.66;10418262;28;20566;-68
2021/06/15 00:30:39;;;;;;;5.00;3.90;;;;;;;20.88;54.37;100333.31;10422837;28;20049;-69
2021/06/15 00:35:40;;;;;;;6.28;3.80;;;;;;;20.87;54.53;100342.44;10412516;28;20073;-68
2021/06/15 00:40:42;;;;;;;4.78;3.90;;;;;;;20.79;54.62;100335.28;10392025;28;20633;-68
2021/06/15 00:45:44;;;;;;;4.68;4.18;;;;;;;20.74;55.09;100330.44;10413764;28;20084;-68
2021/06/15 00:50:45;;;;;;;5.18;4.07;;;;;;;20.59;55.09;100316.06;10418878;28;20096;-68
2021/06/15 00:55:47;;;;;;;8.48;4.85;;;;;;;20.63;55.18;100333.59;10407436;28;20041;-68
2021/06/15 01:00:50;;;;;;;5.50;4.45;;;;;;;20.40;55.46;100318.31;10427669;28;20056;-69
2021/06/15 01:05:52;;;;;;;6.18;4.00;;;;;;;20.51;55.75;100341.34;10414893;28;20049;-68
2021/06/15 01:11:04;;;;;;;6.75;4.38;;;;;;;20.48;55.84;100337.13;10392132;28;20103;-69
2021/06/15 01:16:15;;;;;;;4.57;4.18;;;;;;;20.44;56.01;100338.53;10391502;28;20120;-69
2021/06/15 01:21:19;;;;;;;9.10;4.40;;;;;;;20.34;56.09;100337.13;10410197;28;20139;-68
2021/06/15 01:26:48;;;;;;;5.70;4.57;;;;;;;20.38;56.05;100347.38;10410275;28;20126;-68
2021/06/15 01:31:58;;;;;;;5.00;4.45;;;;;;;20.25;56.38;100333.66;10413077;28;20484;-69
2021/06/15 01:37:13;;;;;;;5.60;4.20;;;;;;;20.27;56.17;100342.44;10409669;28;20051;-68
2021/06/15 01:42:26;;;;;;;5.20;4.40;;;;;;;20.16;55.93;100348.28;10410782;28;20132;-68
2021/06/15 01:47:27;;;;;;;3.97;3.67;;;;;;;20.19;56.39;100348.78;10411946;28;20073;-68
2021/06/15 01:52:38;;;;;;;5.63;4.93;;;;;;;20.09;56.90;100343.63;10413893;28;20061;-69
2021/06/15 01:57:41;;;;;;;5.25;4.43;;;;;;;20.01;57.04;100334.75;10419235;28;20653;-68
2021/06/15 02:02:44;;;;;;;7.63;4.15;;;;;;;19.93;57.45;100341.91;10389929;28;20072;-69
2021/06/15 02:07:46;;;;;;;7.00;4.65;;;;;;;19.95;57.20;100341.72;10414187;28;20046;-68
2021/06/15 02:12:52;;;;;;;5.88;4.68;;;;;;;19.95;57.19;100347.13;10393195;28;20076;-68
2021/06/15 02:17:57;;;;;;;5.82;4.95;;;;;;;19.91;57.25;100340.44;10411156;28;20067;-68
2021/06/15 02:23:02;;;;;;;4.93;3.95;;;;;;;19.77;57.05;100329.41;10388004;28;20128;-67
2021/06/15 02:28:04;;;;;;;4.95;4.47;;;;;;;19.71;56.95;100330.09;10392329;28;20041;-68
2021/06/15 02:33:12;;;;;;;4.88;4.38;;;;;;;19.67;56.94;100347.69;10406957;28;20515;-68
2021/06/15 02:38:19;;;;;;;4.90;4.30;;;;;;;19.57;57.53;100333.56;10402157;28;20499;-68
2021/06/15 02:43:24;;;;;;;6.50;4.85;;;;;;;19.65;57.42;100347.03;10419504;28;20041;-68
2021/06/15 02:48:32;;;;;;;6.75;6.00;;;;;;;19.66;57.79;100342.47;10407895;28;20044;-68
2021/06/15 02:53:42;;;;;;;6.93;6.00;;;;;;;19.66;57.84;100337.88;10420659;28;20080;-68
2021/06/15 02:58:47;;;;;;;6.15;5.55;;;;;;;19.59;57.96;100342.31;10435549;28;20041;-68
2021/06/15 03:03:48;;;;;;;7.05;5.15;;;;;;;19.47;58.16;100332.97;10397891;28;20114;-68
2021/06/15 03:08:50;;;;;;;5.10;4.60;;;;;;;19.49;57.98;100347.97;10412295;28;20124;-68
2021/06/15 03:14:01;;;;;;;6.00;4.75;;;;;;;19.47;57.74;100351.88;10421009;28;20136;-67
2021/06/15 03:19:03;;;;;;;4.70;4.20;;;;;;;19.45;58.07;100357.44;10407559;28;20151;-67
2021/06/15 03:24:10;;;;;;;6.03;4.50;;;;;;;19.34;58.01;100355.19;10403237;28;20164;-68
2021/06/15 03:29:17;;;;;;;5.70;4.78;;;;;;;19.27;58.20;100349.63;10415200;28;20131;-68
2021/06/15 03:34:22;;;;;;;5.45;4.70;;;;;;;19.31;58.63;100358.22;10402828;28;20565;-68
2021/06/15 03:39:25;;;;;;;4.25;3.85;;;;;;;19.25;58.77;100352.50;10399166;28;20044;-69
2021/06/15 03:44:27;;;;;;;4.82;4.28;;;;;;;19.23;59.04;100359.09;10410935;28;20077;-69
2021/06/15 03:49:29;;;;;;;4.20;3.40;;;;;;;19.08;58.95;100359.88;10405761;28;20152;-68
2021/06/15 03:54:32;;;;;;;4.22;3.83;;;;;;;19.18;59.15;100372.28;10401997;28;20049;-68
2021/06/15 03:59:37;;;;;;;3.67;3.38;;;;;;;19.15;59.29;100357.28;10420875;28;20129;-69
2021/06/15 04:04:40;;;;;;;5.10;3.60;;;;;;;19.15;59.17;100365.38;10405219;28;20457;-68
2021/06/15 04:09:45;;;;;;;4.15;3.17;;;;;;;19.18;58.94;100361.50;10412533;28;20048;-68
2021/06/15 04:14:48;;;;;;;3.63;3.28;;;;;;;19.26;59.31;100372.25;10403532;28;20128;-69
2021/06/15 04:19:55;;;;;;;3.45;3.13;;;;;;;19.26;59.22;100358.78;10421552;28;20053;-69
2021/06/15 04:24:58;;;;;;;4.57;3.50;;;;;;;19.38;59.20;100378.06;10423087;28;20045;-69
2021/06/15 04:30:01;;;;;;;3.40;3.10;;;;;;;19.41;59.19;100377.72;10407311;28;20073;-68
2021/06/15 04:35:05;;;;;;;4.60;3.60;;;;;;;19.39;58.87;100368.97;10404206;28;20133;-68
2021/06/15 04:40:20;;;;;;;3.80;3.50;;;;;;;19.45;59.03;100389.00;10403043;28;20115;-68
2021/06/15 04:45:35;;;;;;;9.48;3.30;;;;;;;19.45;59.28;100379.03;10428393;28;20075;-68
2021/06/15 04:50:36;;;;;;;6.10;3.65;;;;;;;19.58;59.51;100389.25;10414534;28;20063;-68
2021/06/15 04:55:39;;;;;;;6.47;3.45;;;;;;;19.68;59.20;100392.56;10426810;28;20467;-68
2021/06/15 05:00:40;;;;;;;5.78;3.78;;;;;;;19.70;59.23;100392.38;10407982;28;20071;-68
2021/06/15 05:05:42;;;;;;;4.45;3.85;;;;;;;19.60;59.41;100377.25;10410020;28;20466;-69
2021/06/15 05:10:45;;;;;;;4.47;4.07;;;;;;;19.77;59.74;100399.63;10399830;28;20399;-69
2021/06/15 05:15:47;;;;;;;6.43;4.80;;;;;;;19.69;59.89;100390.69;10428033;28;20056;-69
2021/06/15 05:20:49;;;;;;;5.78;4.10;;;;;;;19.87;59.07;100410.16;10422176;28;20501;-69
2021/06/15 05:25:50;;;;;;;6.57;4.10;;;;;;;19.93;59.02;100409.44;10400782;28;20403;-68
2021/06/15 05:30:52;;;;;;;5.47;4.75;;;;;;;20.03;58.85;100414.59;10426388;28;20544;-67
2021/06/15 05:35:54;;;;;;;8.68;5.28;;;;;;;20.17;58.40;100428.34;10420504;28;22872;-68
2021/06/15 05:40:58;;;;;;;5.53;5.00;;;;;;;20.26;58.21;100419.13;10387600;28;20130;-68
2021/06/15 05:45:59;;;;;;;8.65;5.57;;;;;;;20.34;57.81;100416.34;10412292;28;20588;-66
2021/06/15 05:51:03;;;;;;;5.38;4.47;;;;;;;20.46;57.55;100425.72;10415982;28;20076;-67
2021/06/15 05:56:05;;;;;;;11.15;5.10;;;;;;;20.54;58.06;100432.06;10420344;28;20112;-68
2021/06/15 06:01:06;;;;;;;6.78;4.15;;;;;;;20.54;58.49;100426.66;10410902;28;20503;-68
2021/06/15 06:11:44;;;;;;;4.88;3.78;;;;;;;20.63;58.06;100429.09;10372430;28;20102;-68
2021/06/15 06:16:46;;;;;;;6.20;3.70;;;;;;;20.86;57.92;100440.88;10389754;28;24240;-67
2021/06/15 06:21:48;;;;;;;4.90;3.25;;;;;;;20.91;57.73;100430.31;10417614;28;20053;-66
2021/06/15 06:26:50;;;;;;;4.75;3.58;;;;;;;21.13;57.19;100440.19;10421907;28;20436;-67
2021/06/15 06:31:52;;;;;;;4.53;3.03;;;;;;;21.21;56.50;100439.25;10404506;28;20205;-68
2021/06/15 06:36:53;;;;;;;4.97;3.25;;;;;;;21.14;56.23;100444.59;10426710;28;20087;-66
2021/06/15 06:41:55;;;;;;;6.43;3.53;;;;;;;21.29;56.19;100447.28;10427841;28;20577;-67
2021/06/15 06:46:56;;;;;;;6.45;2.67;;;;;;;21.57;55.70;100453.88;10432534;28;20049;-67
2021/06/15 06:51:58;;;;;;;4.43;2.80;;;;;;;21.74;55.86;100433.66;10401591;28;20068;-67
2021/06/15 06:56:59;;;;;;;4.72;2.78;;;;;;;22.03;54.45;100453.53;10409067;28;20362;-67
2021/06/15 07:02:01;;;;;;;5.13;2.88;;;;;;;22.16;53.57;100447.38;10400898;28;20122;-67
2021/06/15 07:07:03;;;;;;;4.82;3.80;;;;;;;22.14;54.07;100439.44;10398727;28;20128;-67
2021/06/15 07:17:29;;;;;;;4.43;3.67;;;;;;;22.68;52.49;100445.31;10352043;28;20045;-67
2021/06/15 07:22:31;;;;;;;5.88;3.85;;;;;;;22.84;52.49;100449.59;10365444;28;20631;-67
2021/06/15 07:27:32;;;;;;;4.93;3.42;;;;;;;22.93;51.62;100449.22;10350531;28;20400;-68
2021/06/15 07:32:34;;;;;;;4.03;3.47;;;;;;;23.08;51.31;100443.69;10363691;28;20132;-68
2021/06/15 07:37:35;;;;;;;11.75;4.10;;;;;;;23.27;51.27;100434.00;10364917;28;20147;-67
2021/06/15 07:42:37;;;;;;;4.25;3.05;;;;;;;23.57;50.98;100447.25;10366395;28;20191;-68
2021/06/15 07:47:38;;;;;;;5.43;3.72;;;;;;;23.93;49.93;100448.84;10365633;28;20514;-67
2021/06/15 07:52:46;;;;;;;3.75;2.65;;;;;;;24.09;49.50;100453.00;10364281;28;20119;-68
2021/06/15 07:57:48;;;;;;;5.00;3.00;;;;;;;24.23;47.85;100455.75;10356087;28;20422;-68
2021/06/15 08:02:50;;;;;;;4.18;2.53;;;;;;;24.34;47.12;100455.97;10361334;28;20665;-67
2021/06/15 08:07:52;;;;;;;3.03;2.25;;;;;;;24.45;45.75;100445.50;10364324;28;21535;-67
2021/06/15 08:12:54;;;;;;;4.82;2.40;;;;;;;24.60;46.06;100446.13;10347228;28;20100;-67
2021/06/15 08:17:55;;;;;;;2.60;2.40;;;;;;;24.80;46.55;100443.41;10361903;28;20052;-68
2021/06/15 08:22:59;;;;;;;6.70;2.63;;;;;;;25.06;46.49;100430.75;10365319;28;20073;-68
2021/06/15 08:28:01;;;;;;;3.33;3.03;;;;;;;25.30;45.97;100418.31;10344401;28;20045;-65
2021/06/15 08:33:02;;;;;;;6.00;2.42;;;;;;;25.51;46.48;100429.97;10363237;28;20498;-68
2021/06/15 08:38:05;;;;;;;3.85;2.45;;;;;;;25.70;45.68;100420.84;10360223;28;20391;-68
2021/06/15 08:43:06;;;;;;;6.90;2.70;;;;;;;26.03;45.08;100425.25;10346055;28;20190;-67
2021/06/15 08:48:09;;;;;;;3.13;2.55;;;;;;;26.21;45.38;100429.06;10349571;28;20130;-68
2021/06/15 08:53:11;;;;;;;4.95;2.45;;;;;;;26.59;44.70;100428.94;10345364;28;20743;-66
2021/06/15 08:58:38;;;;;;;3.97;2.43;;;;;;;26.77;41.88;100425.44;10361106;28;20136;-68
2021/06/15 09:03:40;;;;;;;3.25;2.60;;;;;;;26.59;43.56;100426.22;10359448;28;20248;-67
2021/06/15 09:08:55;;;;;;;4.63;2.72;;;;;;;26.50;42.07;100426.72;10362731;28;20136;-65
2021/06/15 09:13:56;;;;;;;5.45;2.70;;;;;;;26.08;43.38;100424.59;10358601;28;20152;-67
2021/06/15 09:19:00;;;;;;;6.00;2.65;;;;;;;26.50;42.62;100418.53;10357831;28;20144;-67
2021/06/15 09:24:26;;;;;;;5.45;2.85;;;;;;;26.71;41.42;100409.09;10351955;28;20475;-68
2021/06/15 09:29:51;;;;;;;4.80;2.38;;;;;;;26.86;41.93;100419.66;10361899;28;20053;-67
2021/06/15 09:34:58;;;;;;;6.55;2.70;;;;;;;27.66;40.19;100411.28;10357791;28;20422;-67
2021/06/15 09:40:02;;;;;;;5.30;2.40;;;;;;;28.37;39.05;100406.00;10359380;28;20061;-67
2021/06/15 09:45:18;;;;;;;5.35;2.67;;;;;;;28.57;38.32;100408.34;10358416;28;20670;-68
2021/06/15 09:50:21;;;;;;;9.27;2.97;;;;;;;28.68;38.68;100405.88;10359541;28;20150;-67
2021/06/15 09:55:23;;;;;;;6.43;3.78;;;;;;;28.80;38.62;100409.41;10357377;28;20049;-68
2021/06/15 10:00:24;;;;;;;8.17;3.57;;;;;;;29.05;36.63;100406.41;10352585;28;20739;-68
2021/06/15 10:05:38;;;;;;;4.30;3.03;;;;;;;29.19;36.60;100403.38;10357122;28;20168;-69
2021/06/15 10:10:42;;;;;;;3.00;2.38;;;;;;;29.14;37.31;100398.63;10357309;28;20179;-67
2021/06/15 10:15:44;;;;;;;3.13;2.50;;;;;;;29.51;36.01;100398.25;10355565;28;20513;-67
2021/06/15 10:20:45;;;;;;;3.38;1.85;;;;;;;29.74;35.27;100402.81;10347918;28;20104;-67
2021/06/15 10:25:47;;;;;;;3.73;1.90;;;;;;;29.79;34.55;100385.59;10358753;28;20560;-67
2021/06/15 10:30:49;;;;;;;4.53;2.23;;;;;;;30.04;33.97;100392.59;10358947;28;20139;-68
2021/06/15 10:35:55;;;;;;;2.28;1.75;;;;;;;30.23;33.90;100393.19;10363980;28;20109;-68
2021/06/15 10:41:00;;;;;;;3.83;2.17;;;;;;;30.50;34.15;100379.59;10344704;28;20390;-73
2021/06/15 10:46:14;;;;;;;2.90;2.15;;;;;;;30.84;31.83;100377.59;10358840;28;20077;-68
2021/06/15 10:51:23;;;;;;;3.65;2.17;;;;;;;30.96;31.82;100380.22;10356962;28;20042;-68
2021/06/15 10:56:30;;;;;;;3.08;1.98;;;;;;;31.10;31.44;100388.09;10358144;28;20143;-67
2021/06/15 11:01:33;;;;;;;5.20;2.50;;;;;;;31.40;30.61;100376.59;10359654;28;20129;-66
2021/06/15 11:06:35;;;;;;;5.78;2.25;;;;;;;31.76;29.77;100370.66;10359624;28;20176;-67
2021/06/15 11:11:36;;;;;;;4.05;2.95;;;;;;;31.58;29.17;100358.13;10364590;28;21582;-67
2021/06/15 11:16:44;;;;;;;;;;;;;;;31.23;30.84;100359.38;10365215;28;20123;-67
2021/06/15 11:22:07;;;;;;;3.70;2.60;;;;;;;31.57;29.97;100351.75;10367435;28;20111;-66
2021/06/15 11:27:23;;;;;;;4.55;2.33;;;;;;;31.96;30.00;100343.28;10363366;28;20045;-66
2021/06/15 11:32:25;;;;;;;4.70;2.20;;;;;;;32.25;29.87;100342.97;10364037;28;20096;-68
2021/06/15 11:37:29;;;;;;;4.45;2.45;;;;;;;32.49;27.59;100339.78;10364776;28;20132;-67
2021/06/15 11:42:31;;;;;;;3.10;2.78;;;;;;;32.51;25.71;100343.94;10355493;28;20056;-66
2021/06/15 11:47:38;;;;;;;4.88;2.47;;;;;;;32.50;27.54;100335.94;10360254;28;20077;-67
2021/06/15 11:52:48;;;;;;;3.45;2.47;;;;;;;32.36;27.27;100333.66;10362761;28;20589;-66
2021/06/15 11:57:56;;;;;;;4.15;2.50;;;;;;;32.50;28.45;100334.00;10361799;28;20045;-66
2021/06/15 12:03:04;;;;;;;4.32;2.90;;;;;;;32.51;27.97;100327.41;10363499;28;20045;-66
2021/06/15 12:08:06;;;;;;;6.57;2.67;;;;;;;32.35;28.64;100323.75;10342969;28;20051;-67
2021/06/15 12:13:26;;;;;;;6.53;3.53;;;;;;;32.35;28.74;100318.25;10344175;28;20547;-66
2021/06/15 12:18:28;;;;;;;5.30;3.17;;;;;;;32.50;28.46;100319.41;10358861;28;20103;-67
2021/06/15 12:23:34;;;;;;;5.00;2.97;;;;;;;32.52;28.53;100318.06;10351910;28;20131;-66
2021/06/15 12:28:39;;;;;;;4.35;2.95;;;;;;;32.55;28.86;100319.44;10358873;28;20077;-68
2021/06/15 12:33:42;;;;;;;4.70;2.75;;;;;;;32.47;28.99;100308.94;10360711;28;20632;-65
2021/06/15 12:38:45;;;;;;;5.10;3.03;;;;;;;32.38;29.72;100306.69;10362361;28;20105;-65
2021/06/15 12:43:48;;;;;;;5.63;3.70;;;;;;;32.44;29.80;100299.25;10361465;28;20062;-66
2021/06/15 12:48:57;;;;;;;6.30;3.55;;;;;;;32.59;29.94;100301.25;10362920;28;20453;-65
2021/06/15 12:54:24;;;;;;;3.20;2.85;;;;;;;32.56;29.55;100296.28;10360062;28;20056;-66
2021/06/15 12:59:26;;;;;;;3.65;3.22;;;;;;;32.13;29.18;100295.53;10360409;28;20133;-67
2021/06/15 13:04:28;;;;;;;9.73;3.40;;;;;;;31.95;29.86;100297.59;10362038;28;20045;-66
2021/06/15 13:09:31;;;;;;;5.93;2.70;;;;;;;31.96;29.71;100302.00;10360661;28;20128;-66
2021/06/15 13:14:35;;;;;;;4.75;3.40;;;;;;;31.87;30.41;100295.31;10333641;22;20211;-60
2021/06/15 13:19:43;;;;;;;3.88;2.97;;;;;;;32.16;30.33;100306.00;10316689;28;20045;-59
2021/06/15 13:24:46;;;;;;;3.83;3.30;;;;;;;32.09;29.97;100308.97;10350812;28;20095;-59
2021/06/15 13:29:48;;;;;;;4.20;3.10;;;;;;;31.70;30.72;100296.31;10353078;28;20096;-57
2021/06/15 13:35:09;;;;;;;4.20;3.28;;;;;;;31.51;30.61;100292.25;10345902;28;20049;-59
2021/06/15 13:40:25;;;;;;;3.17;2.72;;;;;;;31.63;30.74;100292.13;10352211;28;20053;-58
2021/06/15 13:45:31;;;;;;;5.03;3.22;;;;;;;31.78;30.45;100289.47;10328748;28;20298;-58
2021/06/15 13:50:37;;;;;;;8.02;3.85;;;;;;;31.79;30.65;100290.34;10348881;28;20140;-59
2021/06/15 13:55:44;;;;;;;5.78;3.40;;;;;;;31.79;30.55;100276.56;10350532;28;20052;-57
2021/06/15 14:00:47;;;;;;;8.30;3.33;;;;;;;31.50;31.26;100274.94;10345897;28;20482;-57
2021/06/15 14:05:48;;;;;;;4.38;3.65;;;;;;;31.46;31.26;100273.00;10345364;28;20045;-54
2021/06/15 14:10:49;;;;;;;6.25;3.38;;;;;;;31.52;31.31;100274.69;10345543;28;20042;-57
2021/06/15 14:15:51;;;;;;;4.15;3.00;;;;;;;31.25;31.25;100256.31;10328179;28;20578;-58
2021/06/15 14:20:53;;;;;;;5.32;3.47;;;;;;;31.20;31.10;100259.03;10327476;28;20395;-59
2021/06/15 14:25:54;;;;;;;3.95;3.15;;;;;;;31.15;31.19;100267.19;10349393;28;20069;-61
2021/06/15 14:30:56;;;;;;;3.85;3.22;;;;;;;31.13;30.92;100258.41;10346651;28;20509;-54
2021/06/15 14:35:58;;;;;;;3.83;3.40;;;;;;;31.05;32.15;100251.47;10347132;28;21144;-58
2021/06/15 14:40:59;;;;;;;4.95;3.10;;;;;;;30.98;32.00;100246.16;10352795;28;20127;-54
2021/06/15 14:46:01;;;;;;;4.25;3.33;;;;;;;30.97;31.73;100246.38;10354960;28;20055;-56
2021/06/15 14:51:03;;;;;;;5.05;4.43;;;;;;;30.85;31.75;100239.13;10352335;28;20095;-57
2021/06/15 14:56:05;;;;;;;7.57;3.60;;;;;;;30.83;32.36;100238.53;10344557;28;20132;-55
2021/06/15 15:01:06;;;;;;;5.00;3.58;;;;;;;30.82;32.43;100236.91;10351657;28;20136;-58
2021/06/15 15:06:08;;;;;;;3.75;3.35;;;;;;;30.80;31.68;100235.50;10351392;28;20060;-60
2021/06/15 15:11:26;;;;;;;4.20;3.80;;;;;;;30.66;32.38;100229.59;10352363;28;20046;-60
2021/06/15 15:16:28;;;;;;;4.15;3.60;;;;;;;30.68;32.64;100230.97;10341814;28;20140;-59
2021/06/15 15:21:31;;;;;;;9.82;5.65;;;;;;;30.71;32.48;100226.06;10347869;28;20144;-57
2021/06/15 15:26:34;;;;;;;5.78;4.13;;;;;;;30.76;31.57;100215.97;10365879;28;20495;-56
2021/06/15 15:31:36;;;;;;;5.28;4.63;;;;;;;30.75;31.45;100210.72;10364444;28;20168;-56
2021/06/15 15:36:37;;;;;;;6.87;3.73;;;;;;;30.72;32.01;100206.56;10364382;28;20465;-55
2021/06/15 15:41:39;;;;;;;3.58;3.28;;;;;;;30.82;32.47;100206.69;10364794;28;20108;-56
2021/06/15 15:46:42;;;;;;;8.02;6.07;;;;;;;30.83;32.28;100210.25;10347747;28;20084;-56
2021/06/15 15:51:44;;;;;;;2.88;2.67;;;;;;;30.84;31.92;100211.91;10363107;28;20136;-59
2021/06/15 15:56:47;;;;;;;3.22;2.50;;;;;;;30.84;32.37;100211.91;10362017;28;20057;-58
2021/06/15 16:01:49;;;;;;;5.47;3.30;;;;;;;30.82;32.28;100205.84;10362171;28;20492;-55
2021/06/15 16:06:51;;;;;;;3.13;2.63;;;;;;;30.71;32.50;100195.84;10345127;28;20053;-54
2021/06/15 16:11:52;;;;;;;5.70;3.30;;;;;;;30.64;31.93;100196.03;10344244;28;20168;-57
2021/06/15 16:16:54;;;;;;;4.20;2.92;;;;;;;30.69;31.77;100198.84;10356487;28;20128;-55
2021/06/15 16:21:55;;;;;;;3.40;3.08;;;;;;;30.71;32.10;100193.09;10346001;28;20384;-55
2021/06/15 16:26:59;;;;;;;3.88;3.17;;;;;;;30.64;32.37;100194.13;10329257;28;20418;-60
2021/06/15 16:32:01;;;;;;;4.75;3.22;;;;;;;30.37;32.31;100185.84;10349686;28;20140;-58
2021/06/15 16:37:03;;;;;;;3.22;2.92;;;;;;;30.36;32.31;100194.34;10342629;28;20045;-63
2021/06/15 16:42:04;;;;;;;3.88;2.92;;;;;;;30.18;32.69;100192.75;10331791;28;20192;-60
2021/06/15 16:47:06;;;;;;;3.30;3.00;;;;;;;30.09;33.11;100193.19;10338411;28;20518;-59
2021/06/15 16:52:08;;;;;;;;;;;;;;;29.97;33.39;100193.31;10327031;28;20065;-56
2021/06/15 16:57:10;;;;;;;6.22;3.55;;;;;;;29.86;33.74;100197.00;10346566;28;19952;-56
2021/06/15 17:02:14;;;;;;;5.83;3.73;;;;;;;29.84;33.95;100192.84;10342932;28;20084;-59
2021/06/15 17:07:16;;;;;;;4.80;3.30;;;;;;;29.72;34.31;100185.50;10327626;28;20053;-53
2021/06/15 17:12:17;;;;;;;6.18;3.90;;;;;;;29.63;35.18;100192.50;10346155;28;20205;-55
2021/06/15 17:17:19;;;;;;;4.63;3.07;;;;;;;29.60;35.38;100196.59;10341935;28;20550;-56
2021/06/15 17:22:20;;;;;;;4.73;3.63;;;;;;;29.58;35.07;100193.28;10338948;28;20045;-62
2021/06/15 17:27:22;;;;;;;4.03;3.63;;;;;;;29.52;35.44;100194.28;10341137;28;20439;-57
2021/06/15 17:32:23;;;;;;;6.73;3.80;;;;;;;29.34;35.59;100175.34;10342991;28;20124;-58
2021/06/15 17:37:25;;;;;;;5.27;3.90;;;;;;;29.27;35.62;100192.81;10341426;28;23137;-57
2021/06/15 17:42:26;;;;;;;6.73;3.40;;;;;;;29.14;35.86;100182.13;10337862;28;20046;-57
2021/06/15 17:47:28;;;;;;;5.77;4.67;;;;;;;29.00;36.93;100184.34;10325112;28;20128;-57
2021/06/15 17:52:30;;;;;;;4.55;3.65;;;;;;;28.91;37.22;100188.56;10346311;28;20088;-59
2021/06/15 17:57:32;;;;;;;4.30;3.57;;;;;;;28.78;37.49;100181.53;10343238;28;20551;-55
2021/06/15 18:02:37;;;;;;;6.03;4.07;;;;;;;28.67;37.81;100185.13;10341624;28;20045;-54
2021/06/15 18:07:45;;;;;;;5.33;3.83;;;;;;;28.53;38.24;100182.66;10342061;28;20102;-57
2021/06/15 18:12:48;;;;;;;6.10;4.00;;;;;;;28.39;38.56;100168.44;10337066;28;20538;-59
2021/06/15 18:17:50;;;;;;;7.15;3.90;;;;;;;28.18;38.84;100172.66;10343941;28;20053;-57
2021/06/15 18:22:53;;;;;;;5.93;4.43;;;;;;;28.04;39.21;100166.66;10335011;28;20425;-63
2021/06/15 18:27:55;;;;;;;6.50;4.13;;;;;;;28.05;39.56;100172.94;10329373;28;20113;-59
2021/06/15 18:32:57;;;;;;;5.17;4.47;;;;;;;27.98;40.17;100174.97;10350555;28;20132;-59
2021/06/15 18:37:59;;;;;;;7.83;5.00;;;;;;;27.79;41.08;100163.31;10346167;28;20053;-58
2021/06/15 18:43:02;;;;;;;8.33;4.83;;;;;;;27.78;41.84;100184.34;10349256;28;20410;-58
2021/06/15 18:48:05;;;;;;;7.60;5.07;;;;;;;27.66;42.84;100176.16;10333276;28;20069;-55
2021/06/15 18:53:07;;;;;;;6.63;4.93;;;;;;;27.50;43.32;100175.00;10346146;28;20477;-54
2021/06/15 18:58:09;;;;;;;5.50;4.90;;;;;;;27.31;44.17;100170.69;10346882;28;20127;-55
2021/06/15 19:03:12;;;;;;;7.83;5.93;;;;;;;27.19;45.66;100187.06;10351909;28;20077;-58
2021/06/15 19:08:13;;;;;;;6.20;5.60;;;;;;;27.01;46.45;100182.50;10340670;28;20069;-60
2021/06/15 19:13:15;;;;;;;6.30;5.60;;;;;;;26.73;47.23;100183.94;10354890;28;20057;-57
2021/06/15 19:18:17;;;;;;;5.97;5.28;;;;;;;26.61;47.02;100185.78;10346694;28;22401;-59
2021/06/15 19:23:20;;;;;;;6.45;4.57;;;;;;;26.52;47.13;100195.34;10348412;28;20044;-55
2021/06/15 19:28:21;;;;;;;;;;;;;;;26.43;47.50;100201.13;10346743;28;20283;-54
2021/06/15 19:33:26;;;;;;;8.50;6.00;;;;;;;26.26;48.45;100203.66;10348857;28;20071;-56
2021/06/15 19:38:29;;;;;;;8.75;5.78;;;;;;;26.17;48.36;100199.56;10339864;28;20100;-60
2021/06/15 19:43:31;;;;;;;5.70;5.15;;;;;;;26.05;48.60;100213.13;10343219;28;20050;-55
2021/06/15 19:48:32;;;;;;;5.55;5.05;;;;;;;25.89;48.90;100217.22;10347159;28;20143;-56
2021/06/15 19:53:34;;;;;;;6.33;5.63;;;;;;;25.81;49.56;100222.19;10331261;28;20147;-59
2021/06/15 19:58:35;;;;;;;7.03;5.57;;;;;;;25.61;50.65;100228.63;10347715;28;20049;-55
2021/06/15 20:03:37;;;;;;;5.88;5.28;;;;;;;25.49;50.97;100238.59;10347684;28;20204;-54
2021/06/15 20:08:39;;;;;;;7.13;5.65;;;;;;;25.26;51.46;100236.44;10350294;28;20179;-56
2021/06/15 20:13:42;;;;;;;7.97;4.90;;;;;;;25.18;52.06;100249.25;10345448;28;20042;-53
2021/06/15 20:18:46;;;;;;;5.95;5.38;;;;;;;25.03;53.02;100241.41;10344474;28;20053;-54
2021/06/15 20:23:49;;;;;;;5.43;4.93;;;;;;;24.95;52.73;100255.28;10339950;28;20148;-54
2021/06/15 20:28:53;;;;;;;5.55;4.88;;;;;;;24.84;53.36;100248.63;10347840;28;20065;-54
2021/06/15 20:33:54;;;;;;;5.70;4.70;;;;;;;24.77;53.50;100264.19;10347964;28;20056;-54
2021/06/15 20:38:56;;;;;;;4.80;4.40;;;;;;;24.72;53.24;100255.00;10342849;28;20139;-54
2021/06/15 20:43:57;;;;;;;5.63;4.15;;;;;;;24.65;52.93;100257.72;10345796;28;20081;-52
2021/06/15 20:48:59;;;;;;;6.93;5.53;;;;;;;24.51;53.74;100259.63;10344041;28;20049;-60
2021/06/15 20:54:05;;;;;;;6.03;4.68;;;;;;;24.38;53.92;100260.53;10325969;28;20124;-54
2021/06/15 20:59:06;;;;;;;6.20;4.28;;;;;;;24.30;53.98;100266.19;10314170;28;20061;-52
2021/06/15 21:04:08;;;;;;;4.88;4.40;;;;;;;24.20;54.19;100277.53;10336427;28;20124;-52
2021/06/15 21:09:09;;;;;;;5.68;5.15;;;;;;;24.10;54.36;100268.97;10338951;28;20057;-54
2021/06/15 21:14:11;;;;;;;4.40;4.10;;;;;;;24.06;54.22;100265.00;10334457;28;20132;-53
2021/06/15 21:19:12;;;;;;;4.72;4.18;;;;;;;23.85;54.19;100266.91;10353020;28;20057;-52
2021/06/15 21:24:14;;;;;;;4.68;4.28;;;;;;;23.89;54.47;100272.78;10351663;28;20103;-54
2021/06/15 21:29:15;;;;;;;4.53;4.13;;;;;;;23.81;54.52;100271.91;10343298;28;20045;-54
2021/06/15 21:34:17;;;;;;;5.55;4.07;;;;;;;23.78;54.48;100276.91;10353702;28;20132;-54
2021/06/15 21:39:19;;;;;;;5.68;5.05;;;;;;;23.73;54.95;100274.00;10349847;28;20184;-53
2021/06/15 21:44:20;;;;;;;4.60;4.30;;;;;;;23.63;54.83;100269.00;10340656;28;20120;-54
2021/06/15 21:49:22;;;;;;;4.70;4.30;;;;;;;23.50;55.33;100274.44;10336811;28;20049;-54
2021/06/15 21:54:26;;;;;;;5.10;4.60;;;;;;;23.57;55.30;100284.25;10345939;28;20100;-52
2021/06/15 21:59:28;;;;;;;6.63;4.57;;;;;;;23.45;55.56;100266.91;10353992;28;20184;-53
2021/06/15 22:04:30;;;;;;;5.28;4.53;;;;;;;23.43;55.56;100268.97;10364459;28;20132;-53
2021/06/15 22:09:31;;;;;;;5.85;4.40;;;;;;;23.37;55.65;100269.81;10361482;28;20231;-53
2021/06/15 22:14:32;;;;;;;5.22;4.80;;;;;;;23.23;56.26;100268.97;10365728;28;20084;-55
2021/06/15 22:19:34;;;;;;;5.93;4.90;;;;;;;23.16;56.61;100263.50;10371136;28;20108;-52
2021/06/15 22:24:36;;;;;;;5.18;4.07;;;;;;;23.15;56.34;100256.41;10369703;28;20156;-52
2021/06/15 22:29:37;;;;;;;5.07;4.20;;;;;;;23.11;56.55;100252.44;10367477;28;20568;-54
2021/06/15 22:34:39;;;;;;;4.60;4.20;;;;;;;23.07;56.70;100251.13;10358596;28;20049;-54
2021/06/15 22:39:40;;;;;;;5.18;4.68;;;;;;;22.93;57.19;100251.09;10368462;28;20137;-53
2021/06/15 22:44:42;;;;;;;6.22;4.63;;;;;;;22.98;57.20;100253.19;10372051;28;20069;-51
2021/06/15 22:49:43;;;;;;;8.73;4.72;;;;;;;22.86;57.49;100252.97;10370225;28;20068;-55
2021/06/15 22:54:45;;;;;;;5.90;5.20;;;;;;;22.83;57.29;100247.94;10368585;28;20069;-52
2021/06/15 22:59:46;;;;;;;4.82;4.43;;;;;;;22.77;57.70;100233.34;10365553;28;20734;-54
2021/06/15 23:04:47;;;;;;;6.20;5.03;;;;;;;22.75;57.79;100234.56;10370696;28;20069;-52
2021/06/15 23:09:49;;;;;;;6.35;5.18;;;;;;;22.74;57.87;100232.91;10370195;28;20124;-54
2021/06/15 23:14:50;;;;;;;5.80;5.30;;;;;;;22.59;57.83;100209.50;10368990;28;20116;-53
2021/06/15 23:19:51;;;;;;;6.28;5.68;;;;;;;22.61;58.06;100217.44;10366296;28;20128;-53
2021/06/15 23:24:53;;;;;;;6.78;4.85;;;;;;;22.51;58.35;100222.38;10372757;28;20055;-53